sensor_id;sensor_type;location;lat;lon;timestamp;P1;durP1;ratioP1;P2;durP2;ratioP2
9288;SDS011;4683;50.864;12.086;2022-09-21T00:01:49;3.77;;;3.47;;
9288;SDS011;4683;50.864;12.086;2022-09-21T00:04:17;4.60;;;3.70;;
9288;SDS011;4683;50.864;12.086;2022-09-21T00:06:45;5.17;;;3.77;;
9288;SDS011;4683;50.864;12.086;2022-09-21T00:09:15;4.07;;;3.53;;
9288;SDS011;4683;50.864;12.086;2022-09-21T00:11:43;3.60;;;3.30;;
9288;SDS011;4683;50.864;12.086;2022-09-21T00:14:20;4.10;;;3.53;;
9288;SDS011;4683;50.864;12.086;2022-09-21T00:16:49;4.87;;;4.20;;
9288;SDS011;4683;50.864;12.086;2022-09-21T00:19:18;12.63;;;7.17;;
9288;SDS011;4683;50.864;12.086;2022-09-21T00:21:46;27.03;;;14.57;;
9288;SDS011;4683;50.864;12.086;2022-09-21T00:24:16;11.63;;;7.37;;
9288;SDS011;4683;50.864;12.086;2022-09-21T00:26:44;6.37;;;4.37;;
9288;SDS011;4683;50.864;12.086;2022-09-21T00:29:12;6.97;;;4.10;;
9288;SDS011;4683;50.864;12.086;2022-09-21T00:35:13;4.80;;;3.37;;
9288;SDS011;4683;50.864;12.086;2022-09-21T00:37:41;3.97;;;3.40;;
9288;SDS011;4683;50.864;12.086;2022-09-21T00:40:11;3.90;;;3.50;;
9288;SDS011;4683;50.864;12.086;2022-09-21T00:42:39;3.40;;;3.10;;
9288;SDS011;4683;50.864;12.086;2022-09-21T00:45:09;3.20;;;2.90;;
9288;SDS011;4683;50.864;12.086;2022-09-21T00:47:46;4.37;;;3.40;;
9288;SDS011;4683;50.864;12.086;2022-09-21T00:50:17;4.97;;;3.60;;
9288;SDS011;4683;50.864;12.086;2022-09-21T00:52:50;4.00;;;3.40;;
9288;SDS011;4683;50.864;12.086;2022-09-21T00:55:23;3.70;;;3.17;;
9288;SDS011;4683;50.864;12.086;2022-09-21T00:57:56;3.90;;;3.40;;
9288;SDS011;4683;50.864;12.086;2022-09-21T01:00:29;5.83;;;3.80;;
9288;SDS011;4683;50.864;12.086;2022-09-21T01:02:57;3.50;;;2.97;;
9288;SDS011;4683;50.864;12.086;2022-09-21T01:05:26;3.70;;;3.37;;
9288;SDS011;4683;50.864;12.086;2022-09-21T01:07:54;3.67;;;3.37;;
9288;SDS011;4683;50.864;12.086;2022-09-21T01:10:28;3.27;;;3.03;;
9288;SDS011;4683;50.864;12.086;2022-09-21T01:13:03;5.73;;;4.03;;
9288;SDS011;4683;50.864;12.086;2022-09-21T01:15:57;8.07;;;5.87;;
9288;SDS011;4683;50.864;12.086;2022-09-21T01:18:41;8.23;;;4.73;;
9288;SDS011;4683;50.864;12.086;2022-09-21T01:21:17;3.80;;;3.40;;
9288;SDS011;4683;50.864;12.086;2022-09-21T01:27:11;4.30;;;3.23;;
9288;SDS011;4683;50.864;12.086;2022-09-21T01:30:17;4.00;;;3.00;;
9288;SDS011;4683;50.864;12.086;2022-09-21T01:32:49;4.50;;;3.53;;
9288;SDS011;4683;50.864;12.086;2022-09-21T01:35:23;5.53;;;4.03;;
9288;SDS011;4683;50.864;12.086;2022-09-21T01:37:57;6.47;;;4.40;;
9288;SDS011;4683;50.864;12.086;2022-09-21T01:40:29;5.63;;;5.13;;
9288;SDS011;4683;50.864;12.086;2022-09-21T01:43:03;7.40;;;5.63;;
9288;SDS011;4683;50.864;12.086;2022-09-21T01:45:37;6.33;;;5.70;;
9288;SDS011;4683;50.864;12.086;2022-09-21T01:48:10;6.13;;;5.53;;
9288;SDS011;4683;50.864;12.086;2022-09-21T01:50:40;5.47;;;4.23;;
9288;SDS011;4683;50.864;12.086;2022-09-21T01:53:16;4.97;;;4.47;;
9288;SDS011;4683;50.864;12.086;2022-09-21T01:55:50;4.33;;;3.93;;
9288;SDS011;4683;50.864;12.086;2022-09-21T01:58:23;7.50;;;4.17;;
9288;SDS011;4683;50.864;12.086;2022-09-21T02:01:01;4.60;;;4.20;;
9288;SDS011;4683;50.864;12.086;2022-09-21T02:03:33;8.50;;;4.10;;
9288;SDS011;4683;50.864;12.086;2022-09-21T02:06:08;4.93;;;3.63;;
9288;SDS011;4683;50.864;12.086;2022-09-21T02:08:37;4.90;;;3.73;;
9288;SDS011;4683;50.864;12.086;2022-09-21T02:11:06;7.27;;;3.80;;
9288;SDS011;4683;50.864;12.086;2022-09-21T02:13:37;4.33;;;3.40;;
9288;SDS011;4683;50.864;12.086;2022-09-21T02:16:19;5.93;;;3.97;;
9288;SDS011;4683;50.864;12.086;2022-09-21T02:19:11;4.10;;;3.70;;
9288;SDS011;4683;50.864;12.086;2022-09-21T02:21:52;5.80;;;3.50;;
9288;SDS011;4683;50.864;12.086;2022-09-21T02:24:34;3.90;;;3.50;;
9288;SDS011;4683;50.864;12.086;2022-09-21T02:27:11;4.43;;;4.03;;
9288;SDS011;4683;50.864;12.086;2022-09-21T02:29:51;4.63;;;3.73;;
9288;SDS011;4683;50.864;12.086;2022-09-21T02:32:30;5.20;;;3.80;;
9288;SDS011;4683;50.864;12.086;2022-09-21T02:35:07;5.43;;;3.60;;
9288;SDS011;4683;50.864;12.086;2022-09-21T02:37:47;4.47;;;3.73;;
9288;SDS011;4683;50.864;12.086;2022-09-21T02:40:22;5.10;;;3.93;;
9288;SDS011;4683;50.864;12.086;2022-09-21T02:42:57;4.77;;;3.50;;
9288;SDS011;4683;50.864;12.086;2022-09-21T02:45:29;4.57;;;4.17;;
9288;SDS011;4683;50.864;12.086;2022-09-21T02:48:10;6.67;;;3.87;;
9288;SDS011;4683;50.864;12.086;2022-09-21T02:50:49;5.53;;;3.97;;
9288;SDS011;4683;50.864;12.086;2022-09-21T02:53:21;5.27;;;3.60;;
9288;SDS011;4683;50.864;12.086;2022-09-21T02:55:58;6.33;;;4.40;;
9288;SDS011;4683;50.864;12.086;2022-09-21T02:58:32;4.47;;;3.67;;
9288;SDS011;4683;50.864;12.086;2022-09-21T03:01:06;5.00;;;3.73;;
9288;SDS011;4683;50.864;12.086;2022-09-21T03:03:40;5.17;;;4.23;;
9288;SDS011;4683;50.864;12.086;2022-09-21T03:06:09;6.70;;;3.80;;
9288;SDS011;4683;50.864;12.086;2022-09-21T03:08:37;6.47;;;3.97;;
9288;SDS011;4683;50.864;12.086;2022-09-21T03:11:05;4.43;;;3.87;;
9288;SDS011;4683;50.864;12.086;2022-09-21T03:13:35;6.63;;;4.00;;
9288;SDS011;4683;50.864;12.086;2022-09-21T03:16:06;4.30;;;3.87;;
9288;SDS011;4683;50.864;12.086;2022-09-21T03:18:34;6.33;;;3.73;;
9288;SDS011;4683;50.864;12.086;2022-09-21T03:21:05;4.50;;;4.00;;
9288;SDS011;4683;50.864;12.086;2022-09-21T03:23:34;5.27;;;3.93;;
9288;SDS011;4683;50.864;12.086;2022-09-21T03:26:05;7.93;;;4.80;;
9288;SDS011;4683;50.864;12.086;2022-09-21T03:28:34;4.90;;;4.37;;
9288;SDS011;4683;50.864;12.086;2022-09-21T03:31:02;9.83;;;4.70;;
9288;SDS011;4683;50.864;12.086;2022-09-21T03:33:31;5.73;;;5.10;;
9288;SDS011;4683;50.864;12.086;2022-09-21T03:36:00;6.90;;;4.67;;
9288;SDS011;4683;50.864;12.086;2022-09-21T03:38:30;7.07;;;4.80;;
9288;SDS011;4683;50.864;12.086;2022-09-21T03:40:58;7.90;;;4.43;;
9288;SDS011;4683;50.864;12.086;2022-09-21T03:43:26;7.07;;;4.70;;
9288;SDS011;4683;50.864;12.086;2022-09-21T03:45:55;6.40;;;4.70;;
9288;SDS011;4683;50.864;12.086;2022-09-21T03:48:23;6.63;;;4.40;;
9288;SDS011;4683;50.864;12.086;2022-09-21T03:50:52;6.00;;;5.03;;
9288;SDS011;4683;50.864;12.086;2022-09-21T03:53:20;7.23;;;4.87;;
9288;SDS011;4683;50.864;12.086;2022-09-21T03:55:50;4.50;;;4.10;;
9288;SDS011;4683;50.864;12.086;2022-09-21T03:58:18;5.93;;;5.10;;
9288;SDS011;4683;50.864;12.086;2022-09-21T04:00:47;4.90;;;4.40;;
9288;SDS011;4683;50.864;12.086;2022-09-21T04:03:15;4.83;;;4.30;;
9288;SDS011;4683;50.864;12.086;2022-09-21T04:05:44;7.80;;;5.00;;
9288;SDS011;4683;50.864;12.086;2022-09-21T04:08:13;6.07;;;4.67;;
9288;SDS011;4683;50.864;12.086;2022-09-21T04:10:41;6.40;;;4.77;;
9288;SDS011;4683;50.864;12.086;2022-09-21T04:13:11;7.30;;;4.80;;
9288;SDS011;4683;50.864;12.086;2022-09-21T04:15:39;5.47;;;4.77;;
9288;SDS011;4683;50.864;12.086;2022-09-21T04:18:07;5.30;;;4.30;;
9288;SDS011;4683;50.864;12.086;2022-09-21T04:20:36;5.20;;;4.60;;
9288;SDS011;4683;50.864;12.086;2022-09-21T04:23:06;5.27;;;4.27;;
9288;SDS011;4683;50.864;12.086;2022-09-21T04:25:36;7.37;;;5.03;;
9288;SDS011;4683;50.864;12.086;2022-09-21T04:28:04;6.90;;;5.03;;
9288;SDS011;4683;50.864;12.086;2022-09-21T04:30:34;6.47;;;4.90;;
9288;SDS011;4683;50.864;12.086;2022-09-21T04:33:02;6.67;;;5.03;;
9288;SDS011;4683;50.864;12.086;2022-09-21T04:35:32;6.23;;;5.23;;
9288;SDS011;4683;50.864;12.086;2022-09-21T04:38:00;6.03;;;4.93;;
9288;SDS011;4683;50.864;12.086;2022-09-21T04:40:29;9.13;;;5.53;;
9288;SDS011;4683;50.864;12.086;2022-09-21T04:42:57;6.57;;;5.23;;
9288;SDS011;4683;50.864;12.086;2022-09-21T04:45:25;7.07;;;5.27;;
9288;SDS011;4683;50.864;12.086;2022-09-21T04:48:04;7.40;;;5.20;;
9288;SDS011;4683;50.864;12.086;2022-09-21T04:50:43;7.37;;;4.90;;
9288;SDS011;4683;50.864;12.086;2022-09-21T04:53:15;6.43;;;5.30;;
9288;SDS011;4683;50.864;12.086;2022-09-21T04:55:44;7.40;;;5.27;;
9288;SDS011;4683;50.864;12.086;2022-09-21T04:58:13;5.40;;;4.30;;
9288;SDS011;4683;50.864;12.086;2022-09-21T05:00:41;6.47;;;5.07;;
9288;SDS011;4683;50.864;12.086;2022-09-21T05:03:11;7.47;;;5.30;;
9288;SDS011;4683;50.864;12.086;2022-09-21T05:05:44;6.17;;;4.40;;
9288;SDS011;4683;50.864;12.086;2022-09-21T05:08:21;7.50;;;5.13;;
9288;SDS011;4683;50.864;12.086;2022-09-21T05:11:04;8.67;;;4.67;;
9288;SDS011;4683;50.864;12.086;2022-09-21T05:13:37;6.27;;;5.10;;
9288;SDS011;4683;50.864;12.086;2022-09-21T05:16:06;6.50;;;5.20;;
9288;SDS011;4683;50.864;12.086;2022-09-21T05:18:36;6.87;;;5.17;;
9288;SDS011;4683;50.864;12.086;2022-09-21T05:21:04;8.17;;;5.33;;
9288;SDS011;4683;50.864;12.086;2022-09-21T05:23:32;6.40;;;5.77;;
9288;SDS011;4683;50.864;12.086;2022-09-21T05:26:01;6.40;;;5.07;;
9288;SDS011;4683;50.864;12.086;2022-09-21T05:28:30;7.03;;;5.03;;
9288;SDS011;4683;50.864;12.086;2022-09-21T05:31:02;5.67;;;4.47;;
9288;SDS011;4683;50.864;12.086;2022-09-21T05:33:46;5.63;;;4.70;;
9288;SDS011;4683;50.864;12.086;2022-09-21T05:36:33;9.37;;;5.00;;
9288;SDS011;4683;50.864;12.086;2022-09-21T05:39:14;6.57;;;5.03;;
9288;SDS011;4683;50.864;12.086;2022-09-21T05:41:44;7.63;;;5.07;;
9288;SDS011;4683;50.864;12.086;2022-09-21T05:44:14;6.80;;;4.97;;
9288;SDS011;4683;50.864;12.086;2022-09-21T05:46:44;8.03;;;5.03;;
9288;SDS011;4683;50.864;12.086;2022-09-21T05:49:31;5.67;;;4.97;;
9288;SDS011;4683;50.864;12.086;2022-09-21T05:52:14;5.70;;;4.47;;
9288;SDS011;4683;50.864;12.086;2022-09-21T05:54:53;5.93;;;4.87;;
9288;SDS011;4683;50.864;12.086;2022-09-21T05:57:36;7.67;;;4.90;;
9288;SDS011;4683;50.864;12.086;2022-09-21T06:00:14;7.90;;;5.60;;
9288;SDS011;4683;50.864;12.086;2022-09-21T06:02:49;6.80;;;6.07;;
9288;SDS011;4683;50.864;12.086;2022-09-21T06:05:52;22.73;;;17.73;;
9288;SDS011;4683;50.864;12.086;2022-09-21T06:08:21;17.97;;;13.80;;
9288;SDS011;4683;50.864;12.086;2022-09-21T06:11:12;9.87;;;7.83;;
9288;SDS011;4683;50.864;12.086;2022-09-21T06:13:41;9.70;;;8.00;;
9288;SDS011;4683;50.864;12.086;2022-09-21T06:16:09;10.37;;;8.47;;
9288;SDS011;4683;50.864;12.086;2022-09-21T06:18:37;10.20;;;7.80;;
9288;SDS011;4683;50.864;12.086;2022-09-21T06:21:09;13.63;;;9.33;;
9288;SDS011;4683;50.864;12.086;2022-09-21T06:23:38;12.40;;;8.03;;
9288;SDS011;4683;50.864;12.086;2022-09-21T06:26:06;17.53;;;12.07;;
9288;SDS011;4683;50.864;12.086;2022-09-21T06:28:34;18.23;;;11.70;;
9288;SDS011;4683;50.864;12.086;2022-09-21T06:31:02;14.00;;;8.97;;
9288;SDS011;4683;50.864;12.086;2022-09-21T06:33:38;15.17;;;11.87;;
9288;SDS011;4683;50.864;12.086;2022-09-21T06:36:11;11.83;;;8.50;;
9288;SDS011;4683;50.864;12.086;2022-09-21T06:38:40;14.37;;;8.30;;
9288;SDS011;4683;50.864;12.086;2022-09-21T06:41:08;11.07;;;9.67;;
9288;SDS011;4683;50.864;12.086;2022-09-21T06:43:36;12.37;;;8.80;;
9288;SDS011;4683;50.864;12.086;2022-09-21T06:46:12;12.23;;;9.87;;
9288;SDS011;4683;50.864;12.086;2022-09-21T06:48:44;13.73;;;10.20;;
9288;SDS011;4683;50.864;12.086;2022-09-21T06:51:14;12.07;;;9.13;;
9288;SDS011;4683;50.864;12.086;2022-09-21T06:53:45;14.40;;;9.80;;
9288;SDS011;4683;50.864;12.086;2022-09-21T06:56:14;24.43;;;17.33;;
9288;SDS011;4683;50.864;12.086;2022-09-21T06:58:42;12.83;;;9.27;;
9288;SDS011;4683;50.864;12.086;2022-09-21T07:01:12;10.80;;;7.27;;
9288;SDS011;4683;50.864;12.086;2022-09-21T07:03:42;11.77;;;8.57;;
9288;SDS011;4683;50.864;12.086;2022-09-21T07:06:10;9.53;;;8.13;;
9288;SDS011;4683;50.864;12.086;2022-09-21T07:08:42;8.13;;;6.20;;
9288;SDS011;4683;50.864;12.086;2022-09-21T07:11:11;7.77;;;6.37;;
9288;SDS011;4683;50.864;12.086;2022-09-21T07:13:40;18.67;;;12.97;;
9288;SDS011;4683;50.864;12.086;2022-09-21T07:16:10;9.87;;;6.43;;
9288;SDS011;4683;50.864;12.086;2022-09-21T07:18:39;9.60;;;5.90;;
9288;SDS011;4683;50.864;12.086;2022-09-21T07:21:09;10.17;;;7.57;;
9288;SDS011;4683;50.864;12.086;2022-09-21T07:23:38;8.40;;;5.83;;
9288;SDS011;4683;50.864;12.086;2022-09-21T07:26:08;15.23;;;11.90;;
9288;SDS011;4683;50.864;12.086;2022-09-21T07:28:38;7.40;;;6.00;;
9288;SDS011;4683;50.864;12.086;2022-09-21T07:31:17;14.37;;;9.53;;
9288;SDS011;4683;50.864;12.086;2022-09-21T07:33:45;6.70;;;5.43;;
9288;SDS011;4683;50.864;12.086;2022-09-21T07:36:13;4.90;;;4.40;;
9288;SDS011;4683;50.864;12.086;2022-09-21T07:38:43;7.27;;;5.70;;
9288;SDS011;4683;50.864;12.086;2022-09-21T07:41:12;5.87;;;5.00;;
9288;SDS011;4683;50.864;12.086;2022-09-21T07:43:41;24.27;;;16.13;;
9288;SDS011;4683;50.864;12.086;2022-09-21T07:46:10;10.13;;;7.50;;
9288;SDS011;4683;50.864;12.086;2022-09-21T07:48:41;6.60;;;3.80;;
9288;SDS011;4683;50.864;12.086;2022-09-21T07:51:10;31.60;;;19.53;;
9288;SDS011;4683;50.864;12.086;2022-09-21T07:53:40;5.83;;;4.17;;
9288;SDS011;4683;50.864;12.086;2022-09-21T07:56:14;6.10;;;4.63;;
9288;SDS011;4683;50.864;12.086;2022-09-21T07:58:43;14.03;;;8.57;;
9288;SDS011;4683;50.864;12.086;2022-09-21T08:01:29;4.93;;;4.40;;
9288;SDS011;4683;50.864;12.086;2022-09-21T08:03:58;6.93;;;5.33;;
9288;SDS011;4683;50.864;12.086;2022-09-21T08:06:51;6.50;;;3.80;;
9288;SDS011;4683;50.864;12.086;2022-09-21T08:09:19;4.90;;;3.50;;
9288;SDS011;4683;50.864;12.086;2022-09-21T08:11:48;5.10;;;3.93;;
9288;SDS011;4683;50.864;12.086;2022-09-21T08:14:17;4.53;;;4.13;;
9288;SDS011;4683;50.864;12.086;2022-09-21T08:16:51;4.10;;;3.57;;
9288;SDS011;4683;50.864;12.086;2022-09-21T08:19:19;11.23;;;9.40;;
9288;SDS011;4683;50.864;12.086;2022-09-21T08:21:50;5.17;;;3.90;;
9288;SDS011;4683;50.864;12.086;2022-09-21T08:24:18;3.80;;;3.17;;
9288;SDS011;4683;50.864;12.086;2022-09-21T08:26:49;4.50;;;3.60;;
9288;SDS011;4683;50.864;12.086;2022-09-21T08:29:18;10.13;;;8.77;;
9288;SDS011;4683;50.864;12.086;2022-09-21T08:31:46;5.23;;;3.37;;
9288;SDS011;4683;50.864;12.086;2022-09-21T08:34:14;4.10;;;3.03;;
9288;SDS011;4683;50.864;12.086;2022-09-21T08:36:44;3.70;;;2.63;;
9288;SDS011;4683;50.864;12.086;2022-09-21T08:39:13;4.40;;;2.80;;
9288;SDS011;4683;50.864;12.086;2022-09-21T08:41:45;11.30;;;9.63;;
9288;SDS011;4683;50.864;12.086;2022-09-21T08:44:31;2.80;;;2.30;;
9288;SDS011;4683;50.864;12.086;2022-09-21T08:47:08;2.60;;;2.40;;
9288;SDS011;4683;50.864;12.086;2022-09-21T08:49:41;3.73;;;2.60;;
9288;SDS011;4683;50.864;12.086;2022-09-21T08:52:15;2.90;;;2.60;;
9288;SDS011;4683;50.864;12.086;2022-09-21T08:54:47;4.70;;;3.30;;
9288;SDS011;4683;50.864;12.086;2022-09-21T08:57:24;4.90;;;4.30;;
9288;SDS011;4683;50.864;12.086;2022-09-21T08:59:57;5.47;;;3.83;;
9288;SDS011;4683;50.864;12.086;2022-09-21T09:02:36;4.00;;;2.70;;
9288;SDS011;4683;50.864;12.086;2022-09-21T09:05:25;25.90;;;19.60;;
9288;SDS011;4683;50.864;12.086;2022-09-21T09:08:10;21.83;;;15.63;;
9288;SDS011;4683;50.864;12.086;2022-09-21T09:11:20;3.73;;;3.00;;
9288;SDS011;4683;50.864;12.086;2022-09-21T09:14:17;4.07;;;2.83;;
9288;SDS011;4683;50.864;12.086;2022-09-21T09:17:18;3.10;;;2.80;;
9288;SDS011;4683;50.864;12.086;2022-09-21T09:20:04;4.07;;;2.63;;
9288;SDS011;4683;50.864;12.086;2022-09-21T09:22:45;2.87;;;2.03;;
9288;SDS011;4683;50.864;12.086;2022-09-21T09:25:31;4.23;;;2.37;;
9288;SDS011;4683;50.864;12.086;2022-09-21T09:28:20;2.40;;;2.20;;
9288;SDS011;4683;50.864;12.086;2022-09-21T09:30:59;4.67;;;2.33;;
9288;SDS011;4683;50.864;12.086;2022-09-21T09:33:37;3.03;;;2.30;;
9288;SDS011;4683;50.864;12.086;2022-09-21T09:36:18;4.47;;;2.30;;
9288;SDS011;4683;50.864;12.086;2022-09-21T09:38:54;3.80;;;2.23;;
9288;SDS011;4683;50.864;12.086;2022-09-21T09:41:37;3.17;;;2.37;;
9288;SDS011;4683;50.864;12.086;2022-09-21T09:44:40;3.43;;;2.17;;
9288;SDS011;4683;50.864;12.086;2022-09-21T09:47:53;3.63;;;2.40;;
9288;SDS011;4683;50.864;12.086;2022-09-21T09:50:33;3.83;;;2.33;;
9288;SDS011;4683;50.864;12.086;2022-09-21T09:53:05;4.90;;;2.50;;
9288;SDS011;4683;50.864;12.086;2022-09-21T09:55:39;5.23;;;3.00;;
9288;SDS011;4683;50.864;12.086;2022-09-21T09:58:15;5.57;;;2.57;;
9288;SDS011;4683;50.864;12.086;2022-09-21T10:00:51;5.37;;;2.40;;
9288;SDS011;4683;50.864;12.086;2022-09-21T10:03:23;6.03;;;2.03;;
9288;SDS011;4683;50.864;12.086;2022-09-21T10:05:53;4.83;;;2.17;;
9288;SDS011;4683;50.864;12.086;2022-09-21T10:08:26;3.97;;;1.83;;
9288;SDS011;4683;50.864;12.086;2022-09-21T10:11:11;4.17;;;1.60;;
9288;SDS011;4683;50.864;12.086;2022-09-21T10:13:45;2.83;;;1.50;;
9288;SDS011;4683;50.864;12.086;2022-09-21T10:16:17;3.90;;;1.77;;
9288;SDS011;4683;50.864;12.086;2022-09-21T10:18:50;4.20;;;1.90;;
9288;SDS011;4683;50.864;12.086;2022-09-21T10:21:23;3.73;;;1.60;;
9288;SDS011;4683;50.864;12.086;2022-09-21T10:23:55;6.43;;;1.80;;
9288;SDS011;4683;50.864;12.086;2022-09-21T10:26:29;2.70;;;1.47;;
9288;SDS011;4683;50.864;12.086;2022-09-21T10:29:01;3.93;;;1.40;;
9288;SDS011;4683;50.864;12.086;2022-09-21T10:31:53;3.27;;;1.37;;
9288;SDS011;4683;50.864;12.086;2022-09-21T10:34:24;3.63;;;2.03;;
9288;SDS011;4683;50.864;12.086;2022-09-21T10:36:57;3.90;;;1.20;;
9288;SDS011;4683;50.864;12.086;2022-09-21T10:39:28;6.57;;;1.57;;
9288;SDS011;4683;50.864;12.086;2022-09-21T10:42:00;4.03;;;1.70;;
9288;SDS011;4683;50.864;12.086;2022-09-21T10:44:45;3.63;;;1.70;;
9288;SDS011;4683;50.864;12.086;2022-09-21T10:47:28;3.47;;;1.27;;
9288;SDS011;4683;50.864;12.086;2022-09-21T10:50:04;4.20;;;1.70;;
9288;SDS011;4683;50.864;12.086;2022-09-21T10:52:47;1.60;;;1.50;;
9288;SDS011;4683;50.864;12.086;2022-09-21T10:55:21;1.93;;;1.17;;
9288;SDS011;4683;50.864;12.086;2022-09-21T10:57:53;1.77;;;1.00;;
9288;SDS011;4683;50.864;12.086;2022-09-21T11:00:30;3.13;;;1.60;;
9288;SDS011;4683;50.864;12.086;2022-09-21T11:03:32;2.90;;;1.00;;
9288;SDS011;4683;50.864;12.086;2022-09-21T11:06:15;2.33;;;1.23;;
9288;SDS011;4683;50.864;12.086;2022-09-21T11:08:51;4.17;;;1.83;;
9288;SDS011;4683;50.864;12.086;2022-09-21T11:11:45;4.33;;;1.73;;
9288;SDS011;4683;50.864;12.086;2022-09-21T11:14:26;5.27;;;2.00;;
9288;SDS011;4683;50.864;12.086;2022-09-21T11:17:08;3.33;;;1.57;;
9288;SDS011;4683;50.864;12.086;2022-09-21T11:19:46;2.53;;;1.40;;
9288;SDS011;4683;50.864;12.086;2022-09-21T11:22:29;2.47;;;1.83;;
9288;SDS011;4683;50.864;12.086;2022-09-21T11:25:21;2.43;;;1.20;;
9288;SDS011;4683;50.864;12.086;2022-09-21T11:27:59;2.87;;;1.40;;
9288;SDS011;4683;50.864;12.086;2022-09-21T11:30:41;2.43;;;1.13;;
9288;SDS011;4683;50.864;12.086;2022-09-21T11:33:32;5.43;;;2.93;;
9288;SDS011;4683;50.864;12.086;2022-09-21T11:36:45;2.87;;;1.73;;
9288;SDS011;4683;50.864;12.086;2022-09-21T11:39:29;3.40;;;1.13;;
9288;SDS011;4683;50.864;12.086;2022-09-21T11:42:13;3.23;;;1.30;;
9288;SDS011;4683;50.864;12.086;2022-09-21T11:44:59;3.73;;;1.53;;
9288;SDS011;4683;50.864;12.086;2022-09-21T11:47:39;2.47;;;1.20;;
9288;SDS011;4683;50.864;12.086;2022-09-21T11:50:39;3.37;;;1.40;;
9288;SDS011;4683;50.864;12.086;2022-09-21T11:53:27;3.37;;;1.50;;
9288;SDS011;4683;50.864;12.086;2022-09-21T11:56:38;2.10;;;1.20;;
9288;SDS011;4683;50.864;12.086;2022-09-21T11:59:21;5.03;;;1.73;;
9288;SDS011;4683;50.864;12.086;2022-09-21T12:02:15;2.47;;;1.10;;
9288;SDS011;4683;50.864;12.086;2022-09-21T12:05:03;4.03;;;1.40;;
9288;SDS011;4683;50.864;12.086;2022-09-21T12:07:48;5.23;;;1.70;;
9288;SDS011;4683;50.864;12.086;2022-09-21T12:10:42;3.63;;;1.43;;
9288;SDS011;4683;50.864;12.086;2022-09-21T12:13:23;2.50;;;1.20;;
9288;SDS011;4683;50.864;12.086;2022-09-21T12:16:01;4.57;;;1.23;;
9288;SDS011;4683;50.864;12.086;2022-09-21T12:18:47;1.83;;;0.90;;
9288;SDS011;4683;50.864;12.086;2022-09-21T12:21:27;5.40;;;1.13;;
9288;SDS011;4683;50.864;12.086;2022-09-21T12:24:10;3.53;;;1.47;;
9288;SDS011;4683;50.864;12.086;2022-09-21T12:26:47;3.03;;;1.27;;
9288;SDS011;4683;50.864;12.086;2022-09-21T12:29:23;1.63;;;0.90;;
9288;SDS011;4683;50.864;12.086;2022-09-21T12:32:00;3.57;;;1.13;;
9288;SDS011;4683;50.864;12.086;2022-09-21T12:34:40;4.67;;;1.40;;
9288;SDS011;4683;50.864;12.086;2022-09-21T12:37:14;2.67;;;1.17;;
9288;SDS011;4683;50.864;12.086;2022-09-21T12:39:48;2.80;;;1.30;;
9288;SDS011;4683;50.864;12.086;2022-09-21T12:42:29;3.60;;;1.33;;
9288;SDS011;4683;50.864;12.086;2022-09-21T12:45:11;1.87;;;1.40;;
9288;SDS011;4683;50.864;12.086;2022-09-21T12:47:48;5.97;;;1.67;;
9288;SDS011;4683;50.864;12.086;2022-09-21T12:50:25;2.70;;;0.83;;
9288;SDS011;4683;50.864;12.086;2022-09-21T12:52:57;1.93;;;1.50;;
9288;SDS011;4683;50.864;12.086;2022-09-21T12:55:30;2.43;;;1.10;;
9288;SDS011;4683;50.864;12.086;2022-09-21T12:58:19;3.73;;;1.30;;
9288;SDS011;4683;50.864;12.086;2022-09-21T13:01:04;3.20;;;1.17;;
9288;SDS011;4683;50.864;12.086;2022-09-21T13:04:00;2.00;;;1.00;;
9288;SDS011;4683;50.864;12.086;2022-09-21T13:07:05;2.67;;;1.03;;
9288;SDS011;4683;50.864;12.086;2022-09-21T13:09:59;4.80;;;1.07;;
9288;SDS011;4683;50.864;12.086;2022-09-21T13:12:39;3.27;;;1.37;;
9288;SDS011;4683;50.864;12.086;2022-09-21T13:15:16;2.30;;;1.40;;
9288;SDS011;4683;50.864;12.086;2022-09-21T13:18:05;3.43;;;1.20;;
9288;SDS011;4683;50.864;12.086;2022-09-21T13:20:48;3.13;;;1.40;;
9288;SDS011;4683;50.864;12.086;2022-09-21T13:23:20;2.33;;;1.20;;
9288;SDS011;4683;50.864;12.086;2022-09-21T13:26:01;2.47;;;1.00;;
9288;SDS011;4683;50.864;12.086;2022-09-21T13:31:59;2.00;;;1.03;;
9288;SDS011;4683;50.864;12.086;2022-09-21T13:34:32;2.53;;;1.50;;
9288;SDS011;4683;50.864;12.086;2022-09-21T13:37:13;2.53;;;1.37;;
9288;SDS011;4683;50.864;12.086;2022-09-21T13:43:44;3.77;;;1.30;;
9288;SDS011;4683;50.864;12.086;2022-09-21T13:49:32;3.97;;;1.50;;
9288;SDS011;4683;50.864;12.086;2022-09-21T13:55:26;3.17;;;1.63;;
9288;SDS011;4683;50.864;12.086;2022-09-21T13:57:58;1.87;;;0.80;;
9288;SDS011;4683;50.864;12.086;2022-09-21T14:00:33;1.67;;;1.20;;
9288;SDS011;4683;50.864;12.086;2022-09-21T14:03:05;1.70;;;1.17;;
9288;SDS011;4683;50.864;12.086;2022-09-21T14:05:51;2.50;;;1.30;;
9288;SDS011;4683;50.864;12.086;2022-09-21T14:08:28;1.70;;;1.30;;
9288;SDS011;4683;50.864;12.086;2022-09-21T14:11:00;3.90;;;1.40;;
9288;SDS011;4683;50.864;12.086;2022-09-21T14:13:35;2.93;;;1.50;;
9288;SDS011;4683;50.864;12.086;2022-09-21T14:16:24;1.77;;;1.13;;
9288;SDS011;4683;50.864;12.086;2022-09-21T14:23:09;2.90;;;1.50;;
9288;SDS011;4683;50.864;12.086;2022-09-21T14:25:53;2.57;;;1.10;;
9288;SDS011;4683;50.864;12.086;2022-09-21T14:28:30;2.80;;;1.40;;
9288;SDS011;4683;50.864;12.086;2022-09-21T14:31:04;2.57;;;1.53;;
9288;SDS011;4683;50.864;12.086;2022-09-21T14:33:42;2.47;;;1.03;;
9288;SDS011;4683;50.864;12.086;2022-09-21T14:36:16;3.93;;;1.00;;
9288;SDS011;4683;50.864;12.086;2022-09-21T14:38:51;3.30;;;1.03;;
9288;SDS011;4683;50.864;12.086;2022-09-21T14:41:26;1.33;;;1.23;;
9288;SDS011;4683;50.864;12.086;2022-09-21T14:44:03;2.37;;;0.90;;
9288;SDS011;4683;50.864;12.086;2022-09-21T14:46:42;1.70;;;1.00;;
9288;SDS011;4683;50.864;12.086;2022-09-21T14:49:33;3.70;;;1.40;;
9288;SDS011;4683;50.864;12.086;2022-09-21T14:52:35;3.33;;;1.00;;
9288;SDS011;4683;50.864;12.086;2022-09-21T14:55:20;1.40;;;1.27;;
9288;SDS011;4683;50.864;12.086;2022-09-21T14:58:10;1.53;;;1.20;;
9288;SDS011;4683;50.864;12.086;2022-09-21T15:00:56;2.70;;;1.70;;
9288;SDS011;4683;50.864;12.086;2022-09-21T15:04:12;3.77;;;2.17;;
9288;SDS011;4683;50.864;12.086;2022-09-21T15:10:23;2.57;;;1.57;;
9288;SDS011;4683;50.864;12.086;2022-09-21T15:13:35;4.60;;;1.60;;
9288;SDS011;4683;50.864;12.086;2022-09-21T15:16:37;1.80;;;1.10;;
9288;SDS011;4683;50.864;12.086;2022-09-21T15:19:11;2.13;;;0.97;;
9288;SDS011;4683;50.864;12.086;2022-09-21T15:22:10;3.70;;;1.40;;
9288;SDS011;4683;50.864;12.086;2022-09-21T15:24:49;4.57;;;1.80;;
9288;SDS011;4683;50.864;12.086;2022-09-21T15:27:21;2.57;;;1.80;;
9288;SDS011;4683;50.864;12.086;2022-09-21T15:29:52;1.40;;;1.10;;
9288;SDS011;4683;50.864;12.086;2022-09-21T15:32:26;4.27;;;1.37;;
9288;SDS011;4683;50.864;12.086;2022-09-21T15:35:03;3.87;;;2.03;;
9288;SDS011;4683;50.864;12.086;2022-09-21T15:37:45;3.13;;;1.40;;
9288;SDS011;4683;50.864;12.086;2022-09-21T15:40:15;3.27;;;1.57;;
9288;SDS011;4683;50.864;12.086;2022-09-21T15:42:57;3.07;;;1.80;;
9288;SDS011;4683;50.864;12.086;2022-09-21T15:45:29;4.23;;;2.13;;
9288;SDS011;4683;50.864;12.086;2022-09-21T15:48:16;4.20;;;2.60;;
9288;SDS011;4683;50.864;12.086;2022-09-21T15:50:45;4.50;;;1.70;;
9288;SDS011;4683;50.864;12.086;2022-09-21T15:53:24;3.13;;;1.43;;
9288;SDS011;4683;50.864;12.086;2022-09-21T15:55:56;3.60;;;1.40;;
9288;SDS011;4683;50.864;12.086;2022-09-21T15:58:33;3.53;;;1.83;;
9288;SDS011;4683;50.864;12.086;2022-09-21T16:01:07;3.27;;;1.50;;
9288;SDS011;4683;50.864;12.086;2022-09-21T16:03:38;2.97;;;1.60;;
9288;SDS011;4683;50.864;12.086;2022-09-21T16:06:16;4.70;;;2.93;;
9288;SDS011;4683;50.864;12.086;2022-09-21T16:08:52;3.87;;;2.20;;
9288;SDS011;4683;50.864;12.086;2022-09-21T16:11:31;4.53;;;2.10;;
9288;SDS011;4683;50.864;12.086;2022-09-21T16:14:07;5.33;;;2.30;;
9288;SDS011;4683;50.864;12.086;2022-09-21T16:20:06;3.67;;;1.83;;
9288;SDS011;4683;50.864;12.086;2022-09-21T16:22:50;3.47;;;1.73;;
9288;SDS011;4683;50.864;12.086;2022-09-21T16:25:30;5.50;;;2.30;;
9288;SDS011;4683;50.864;12.086;2022-09-21T16:28:02;2.63;;;1.87;;